createdAt,value
2023-04-18T00:02:07.214Z,15.07
2023-04-18T00:04:34.222Z,11.80
2023-04-18T00:07:01.940Z,12.90
2023-04-18T00:09:28.687Z,13.93
2023-04-18T00:11:56.638Z,15.30
2023-04-18T00:14:24.119Z,13.37
2023-04-18T00:16:51.614Z,16.80
2023-04-18T00:19:18.762Z,11.67
2023-04-18T00:21:46.037Z,12.53
2023-04-18T00:24:13.222Z,12.17
2023-04-18T00:26:40.673Z,13.27
2023-04-18T00:29:07.436Z,11.40
2023-04-18T00:31:34.204Z,11.67
2023-04-18T00:34:00.974Z,11.90
2023-04-18T00:36:27.812Z,12.77
2023-04-18T00:38:54.539Z,10.60
2023-04-18T00:41:25.457Z,10.60
2023-04-18T00:43:52.178Z,12.73
2023-04-18T00:46:18.937Z,10.23
2023-04-18T00:48:47.979Z,10.50
2023-04-18T00:51:15.441Z,10.37
2023-04-18T00:53:44.874Z,10.23
2023-04-18T00:56:13.499Z,9.83
2023-04-18T00:58:41.373Z,11.07
2023-04-18T01:01:09.610Z,9.60
2023-04-18T01:03:37.792Z,9.67
2023-04-18T01:06:04.988Z,8.43
2023-04-18T01:08:32.264Z,8.83
2023-04-18T01:10:58.970Z,9.03
2023-04-18T01:13:25.732Z,9.27
2023-04-18T01:15:54.013Z,10.50
2023-04-18T01:18:22.524Z,11.27
2023-04-18T01:20:51.988Z,9.83
2023-04-18T01:23:23.304Z,12.33
2023-04-18T01:25:50.352Z,9.87
2023-04-18T01:28:19.337Z,8.77
2023-04-18T01:30:46.183Z,8.07
2023-04-18T01:33:13.037Z,10.53
2023-04-18T01:35:39.761Z,9.57
2023-04-18T01:38:06.498Z,10.50
2023-04-18T01:40:33.318Z,9.80
2023-04-18T01:43:03.077Z,8.77
2023-04-18T01:45:31.022Z,9.03
2023-04-18T01:47:57.709Z,7.47
2023-04-18T01:50:24.773Z,6.90
2023-04-18T01:52:51.543Z,8.03
2023-04-18T01:55:18.310Z,10.47
2023-04-18T01:57:45.086Z,7.60
2023-04-18T02:00:12.669Z,6.73
2023-04-18T02:02:39.513Z,8.33
2023-04-18T02:05:07.077Z,9.77
2023-04-18T02:07:33.794Z,8.17
2023-04-18T02:10:00.724Z,6.17
2023-04-18T02:12:27.545Z,9.03
2023-04-18T02:14:54.419Z,6.93
2023-04-18T02:17:23.454Z,7.93
2023-04-18T02:19:51.678Z,8.10
2023-04-18T02:22:18.972Z,10.00
2023-04-18T02:24:45.894Z,8.27
2023-04-18T02:27:12.796Z,9.40
2023-04-18T02:29:39.789Z,9.13
2023-04-18T02:32:07.036Z,7.23
2023-04-18T02:34:33.969Z,7.67
2023-04-18T02:37:00.705Z,7.17
2023-04-18T02:39:27.567Z,8.90
2023-04-18T02:41:54.364Z,8.60
2023-04-18T02:44:21.108Z,7.40
2023-04-18T02:46:47.852Z,10.17
2023-04-18T02:49:14.678Z,7.63
2023-04-18T02:51:41.485Z,8.23
2023-04-18T02:54:08.296Z,7.93
2023-04-18T02:56:39.837Z,8.30
2023-04-18T02:59:08.321Z,8.60
2023-04-18T03:01:35.142Z,8.43
2023-04-18T03:04:01.935Z,8.50
2023-04-18T03:06:28.668Z,8.63
2023-04-18T03:08:56.000Z,7.37
2023-04-18T03:11:22.793Z,8.40
2023-04-18T03:13:51.734Z,9.37
2023-04-18T03:16:18.690Z,8.93
2023-04-18T03:18:45.708Z,10.87
2023-04-18T03:21:12.720Z,9.47
2023-04-18T03:23:39.572Z,8.60
2023-04-18T03:26:08.244Z,12.33
2023-04-18T03:28:35.332Z,10.03
2023-04-18T03:31:02.147Z,11.13
2023-04-18T03:33:29.063Z,9.43
2023-04-18T03:35:55.823Z,10.50
2023-04-18T03:38:22.763Z,8.30
2023-04-18T03:40:49.604Z,9.47
2023-04-18T03:43:16.518Z,10.63
2023-04-18T03:45:44.372Z,13.03
2023-04-18T03:48:11.199Z,11.20
2023-04-18T03:50:40.113Z,10.00
2023-04-18T03:53:06.917Z,10.50
2023-04-18T03:55:33.920Z,10.60
2023-04-18T03:58:00.986Z,12.67
2023-04-18T04:00:27.819Z,11.83
2023-04-18T04:02:54.979Z,12.33
2023-04-18T04:05:21.852Z,10.77
2023-04-18T04:07:48.835Z,9.60
2023-04-18T04:10:15.716Z,11.17
2023-04-18T04:12:42.736Z,10.80
2023-04-18T04:15:10.580Z,11.50
2023-04-18T04:17:37.390Z,8.67
2023-04-18T04:20:05.302Z,12.87
2023-04-18T04:22:32.758Z,7.80
2023-04-18T04:25:00.749Z,10.70
2023-04-18T04:27:28.078Z,9.73
2023-04-18T04:29:56.394Z,10.63
2023-04-18T04:32:24.905Z,13.77
2023-04-18T04:34:51.813Z,11.13
2023-04-18T04:37:22.364Z,9.33
2023-04-18T04:39:49.149Z,9.90
2023-04-18T04:42:15.864Z,11.90
2023-04-18T04:44:42.860Z,12.80
2023-04-18T04:47:09.752Z,10.03
2023-04-18T04:49:37.870Z,10.60
2023-04-18T04:52:04.623Z,11.00
2023-04-18T04:54:31.344Z,10.23
2023-04-18T04:56:58.135Z,11.67
2023-04-18T04:59:26.415Z,11.13
2023-04-18T05:01:53.358Z,10.13
2023-04-18T05:04:20.416Z,11.03
2023-04-18T05:06:47.520Z,12.23
2023-04-18T05:09:14.302Z,10.47
2023-04-18T05:11:41.048Z,9.47
2023-04-18T05:14:07.942Z,10.47
2023-04-18T05:16:37.174Z,12.80
2023-04-18T05:19:04.048Z,11.90
2023-04-18T05:21:31.251Z,11.60
2023-04-18T05:23:58.069Z,9.67
2023-04-18T05:26:25.200Z,12.37
2023-04-18T05:28:52.060Z,10.97
2023-04-18T05:31:18.891Z,11.83
2023-04-18T05:33:45.787Z,11.43
2023-04-18T05:36:12.575Z,10.90
2023-04-18T05:38:39.435Z,9.90
2023-04-18T05:41:06.263Z,9.47
2023-04-18T05:43:33.005Z,11.83
2023-04-18T05:46:00.925Z,10.90
2023-04-18T05:48:27.698Z,11.47
2023-04-18T05:50:54.468Z,13.63
2023-04-18T05:53:21.253Z,11.30
2023-04-18T05:55:48.805Z,10.63
2023-04-18T05:58:16.221Z,10.93
2023-04-18T06:00:43.575Z,9.80
2023-04-18T06:03:11.280Z,14.57
2023-04-18T06:05:38.669Z,10.90
2023-04-18T06:08:06.324Z,14.65
2023-04-18T06:10:33.444Z,13.95
2023-04-18T06:13:01.957Z,15.70
2023-04-18T06:15:29.125Z,10.77
2023-04-18T06:17:56.050Z,11.47
2023-04-18T06:20:24.263Z,9.80
2023-04-18T06:22:51.183Z,14.73
2023-04-18T06:25:18.134Z,12.67
2023-04-18T06:27:44.913Z,12.03
2023-04-18T06:30:12.051Z,11.53
2023-04-18T06:32:38.904Z,11.57
2023-04-18T06:35:06.402Z,13.07
2023-04-18T06:37:33.339Z,12.37
2023-04-18T06:40:00.114Z,11.20
2023-04-18T06:42:27.129Z,14.27
2023-04-18T06:44:53.886Z,10.17
2023-04-18T06:47:20.669Z,12.37
2023-04-18T06:49:48.130Z,12.30
2023-04-18T06:52:14.981Z,10.13
2023-04-18T06:54:41.715Z,10.80
2023-04-18T06:57:08.913Z,9.73
2023-04-18T06:59:37.339Z,12.57
2023-04-18T07:02:04.310Z,9.50
2023-04-18T07:04:31.157Z,11.37
2023-04-18T07:06:57.951Z,11.70
2023-04-18T07:09:24.711Z,12.50
2023-04-18T07:11:52.562Z,8.93
2023-04-18T07:14:24.001Z,10.43
2023-04-18T07:16:51.357Z,9.97
2023-04-18T07:19:18.161Z,8.53
2023-04-18T07:21:45.953Z,10.80
2023-04-18T07:24:13.215Z,9.83
2023-04-18T07:26:40.634Z,10.20
2023-04-18T07:29:07.451Z,9.67
2023-04-18T07:31:34.478Z,9.90
2023-04-18T07:34:01.241Z,9.97
2023-04-18T07:36:28.311Z,10.07
2023-04-18T07:38:55.080Z,9.57
2023-04-18T07:41:21.906Z,9.27
2023-04-18T07:43:48.627Z,11.20
2023-04-18T07:46:15.520Z,10.70
2023-04-18T07:48:42.368Z,11.43
2023-04-18T07:51:09.150Z,9.50
2023-04-18T07:53:35.865Z,9.40
2023-04-18T07:56:02.699Z,7.13
2023-04-18T07:58:29.562Z,8.47
2023-04-18T08:00:56.648Z,10.30
2023-04-18T08:03:23.459Z,9.43
2023-04-18T08:05:51.508Z,8.27
2023-04-18T08:08:18.311Z,7.65
2023-04-18T08:10:45.340Z,8.13
2023-04-18T08:13:14.745Z,8.10
2023-04-18T08:15:42.342Z,6.15
2023-04-18T08:18:09.417Z,7.05
2023-04-18T08:20:37.259Z,6.90
2023-04-18T08:23:08.659Z,7.38
2023-04-18T08:25:36.833Z,6.90
2023-04-18T08:28:04.011Z,6.50
2023-04-18T08:30:33.888Z,6.13
2023-04-18T08:33:01.332Z,7.70
2023-04-18T08:35:28.433Z,6.32
2023-04-18T08:37:55.266Z,6.10
2023-04-18T08:40:22.334Z,6.82
2023-04-18T08:42:52.983Z,6.28
2023-04-18T08:45:20.882Z,5.50
2023-04-18T08:47:47.833Z,7.57
2023-04-18T08:50:15.054Z,6.35
2023-04-18T08:52:50.822Z,5.53
2023-04-18T08:55:19.073Z,4.65
2023-04-18T08:57:45.851Z,5.70
2023-04-18T09:00:14.041Z,4.97
2023-04-18T09:02:46.884Z,8.07
2023-04-18T09:05:19.955Z,5.93
2023-04-18T09:07:48.788Z,4.35
2023-04-18T09:10:30.981Z,6.22
2023-04-18T09:13:00.940Z,4.28
2023-04-18T09:15:29.177Z,6.20
2023-04-18T09:18:02.769Z,4.57
2023-04-18T09:20:44.482Z,4.82
2023-04-18T09:23:21.667Z,4.38
2023-04-18T09:25:51.978Z,5.75
2023-04-18T09:28:31.885Z,8.02
2023-04-18T09:31:15.419Z,4.85
2023-04-18T09:33:56.873Z,4.45
2023-04-18T09:36:31.144Z,5.13
2023-04-18T09:38:58.212Z,3.50
2023-04-18T09:41:25.243Z,5.68
2023-04-18T09:44:17.220Z,4.93
2023-04-18T09:46:47.362Z,4.55
2023-04-18T09:49:15.524Z,5.40
2023-04-18T09:51:44.757Z,4.80
2023-04-18T09:54:16.536Z,5.85
2023-04-18T09:56:45.914Z,5.45
2023-04-18T09:59:18.072Z,5.47
2023-04-18T10:01:48.341Z,4.88
2023-04-18T10:04:18.403Z,3.72
2023-04-18T10:06:46.891Z,4.28
2023-04-18T10:09:15.901Z,4.72
2023-04-18T10:11:44.391Z,6.70
2023-04-18T10:14:15.776Z,3.97
2023-04-18T10:16:49.941Z,5.78
2023-04-18T10:19:26.768Z,5.30
2023-04-18T10:22:01.539Z,3.70
2023-04-18T10:24:55.957Z,4.97
2023-04-18T10:27:47.766Z,3.85
2023-04-18T10:30:18.728Z,5.07
2023-04-18T10:32:48.844Z,5.35
2023-04-18T10:35:15.641Z,5.60
2023-04-18T10:37:54.664Z,5.95
2023-04-18T10:40:35.452Z,4.93
2023-04-18T10:43:02.504Z,6.63
2023-04-18T10:45:36.236Z,5.90
2023-04-18T10:48:29.440Z,6.75
2023-04-18T10:51:21.828Z,6.60
2023-04-18T10:53:53.911Z,6.50
2023-04-18T10:56:20.782Z,6.40
2023-04-18T10:58:52.900Z,4.45
2023-04-18T11:01:32.779Z,4.40
2023-04-18T11:04:01.094Z,4.45
2023-04-18T11:06:28.480Z,5.07
2023-04-18T11:09:12.493Z,6.10
2023-04-18T11:11:39.787Z,5.10
2023-04-18T11:14:06.722Z,5.75
2023-04-18T11:16:34.504Z,5.60
2023-04-18T11:19:17.666Z,4.00
2023-04-18T11:21:44.523Z,4.45
2023-04-18T11:24:11.334Z,3.60
2023-04-18T11:26:38.857Z,15.88
2023-04-18T11:29:06.548Z,3.97
2023-04-18T11:31:33.343Z,4.28
2023-04-18T11:34:00.100Z,5.20
2023-04-18T11:36:27.872Z,4.75
2023-04-18T11:38:56.307Z,3.88
2023-04-18T11:41:23.172Z,6.18
2023-04-18T11:43:49.956Z,4.60
2023-04-18T11:46:17.001Z,5.45
2023-04-18T11:48:47.725Z,5.07
2023-04-18T11:51:35.969Z,5.18
2023-04-18T11:54:02.912Z,4.78
2023-04-18T11:56:29.995Z,4.93
2023-04-18T11:58:56.880Z,5.95
2023-04-18T12:01:25.683Z,5.55
2023-04-18T12:04:04.331Z,7.25
2023-04-18T12:06:53.485Z,6.32
2023-04-18T12:09:26.901Z,4.90
2023-04-18T12:12:02.713Z,4.28
2023-04-18T12:14:30.382Z,5.70
2023-04-18T12:16:58.516Z,7.72
2023-04-18T12:19:30.219Z,8.10
2023-04-18T12:22:03.152Z,7.30
2023-04-18T12:24:30.059Z,6.03
2023-04-18T12:26:57.987Z,6.30
2023-04-18T12:29:27.822Z,5.90
2023-04-18T12:31:55.091Z,7.07
2023-04-18T12:34:21.949Z,7.18
2023-04-18T12:36:48.763Z,6.75
2023-04-18T12:39:15.567Z,6.57
2023-04-18T12:41:43.607Z,8.15
2023-04-18T12:44:10.425Z,7.28
2023-04-18T12:46:37.195Z,8.73
2023-04-18T12:49:04.036Z,7.78
2023-04-18T12:51:31.436Z,8.68
2023-04-18T12:53:58.384Z,7.70
2023-04-18T12:56:25.273Z,7.85
2023-04-18T12:58:52.005Z,7.70
2023-04-18T13:01:19.807Z,7.57
2023-04-18T13:03:53.472Z,8.68
2023-04-18T13:06:27.136Z,8.85
2023-04-18T13:08:53.968Z,7.75
2023-04-18T13:11:22.411Z,6.85
2023-04-18T13:13:49.257Z,8.35
2023-04-18T13:16:16.232Z,8.20
2023-04-18T13:18:43.025Z,7.70
2023-04-18T13:21:09.902Z,7.47
2023-04-18T13:23:36.906Z,10.38
2023-04-18T13:26:03.807Z,7.75
2023-04-18T13:28:30.749Z,7.90
2023-04-18T13:30:57.549Z,9.57
2023-04-18T13:33:24.306Z,7.40
2023-04-18T13:35:51.107Z,8.77
2023-04-18T13:38:17.888Z,8.25
2023-04-18T13:41:04.674Z,8.13
2023-04-18T13:43:39.006Z,8.25
2023-04-18T13:46:06.109Z,6.55
2023-04-18T13:48:32.908Z,8.50
2023-04-18T13:50:59.702Z,9.60
2023-04-18T13:53:26.822Z,8.05
2023-04-18T13:55:54.349Z,9.63
2023-04-18T13:58:21.142Z,8.40
2023-04-18T14:00:48.874Z,8.88
2023-04-18T14:03:15.779Z,9.75
2023-04-18T14:05:42.739Z,8.95
2023-04-18T14:08:09.492Z,9.38
2023-04-18T14:10:36.291Z,9.57
2023-04-18T14:13:03.051Z,10.13
2023-04-18T14:15:33.048Z,9.32
2023-04-18T14:18:00.848Z,9.43
2023-04-18T14:20:34.112Z,12.38
2023-04-18T14:23:01.921Z,10.10
2023-04-18T14:25:30.188Z,9.13
2023-04-18T14:28:11.898Z,11.85
2023-04-18T14:30:40.403Z,8.60
2023-04-18T14:33:09.885Z,9.02
2023-04-18T14:35:37.621Z,8.20
2023-04-18T14:38:04.420Z,7.40
2023-04-18T14:40:33.104Z,9.15
2023-04-18T14:43:00.124Z,7.82
2023-04-18T14:45:26.931Z,10.43
2023-04-18T14:47:55.590Z,8.82
2023-04-18T14:50:22.965Z,7.22
2023-04-18T14:52:49.829Z,8.80
2023-04-18T14:55:16.722Z,10.02
2023-04-18T14:57:43.441Z,8.05
2023-04-18T15:00:12.507Z,8.38
2023-04-18T15:02:47.868Z,8.13
2023-04-18T15:05:15.275Z,9.57
2023-04-18T15:07:43.425Z,6.97
2023-04-18T15:10:12.738Z,9.07
2023-04-18T15:12:39.643Z,8.88
2023-04-18T15:15:07.112Z,7.90
2023-04-18T15:17:33.925Z,8.13
2023-04-18T15:20:00.728Z,7.68
2023-04-18T15:22:27.488Z,6.93
2023-04-18T15:24:54.236Z,9.25
2023-04-18T15:27:21.013Z,9.23
2023-04-18T15:29:47.696Z,7.63
2023-04-18T15:32:14.613Z,8.10
2023-04-18T15:34:41.508Z,6.82
2023-04-18T15:37:08.296Z,8.63
2023-04-18T15:39:35.405Z,7.30
2023-04-18T15:42:02.824Z,9.05
2023-04-18T15:44:30.683Z,8.07
2023-04-18T15:47:01.122Z,6.68
2023-04-18T15:49:28.304Z,7.47
2023-04-18T15:51:56.671Z,7.80
2023-04-18T15:54:25.609Z,8.40
2023-04-18T15:56:55.871Z,6.68
2023-04-18T15:59:22.591Z,7.80
2023-04-18T16:01:49.429Z,8.35
2023-04-18T16:04:16.475Z,9.95
2023-04-18T16:06:43.406Z,9.50
2023-04-18T16:09:10.212Z,9.80
2023-04-18T16:11:37.043Z,6.90
2023-04-18T16:14:03.827Z,8.57
2023-04-18T16:16:30.679Z,9.63
2023-04-18T16:18:57.841Z,7.68
2023-04-18T16:21:24.596Z,8.45
2023-04-18T16:23:51.830Z,7.22
2023-04-18T16:26:18.611Z,7.75
2023-04-18T16:28:45.459Z,7.53
2023-04-18T16:31:15.771Z,8.27
2023-04-18T16:33:42.846Z,7.07
2023-04-18T16:36:10.444Z,7.75
2023-04-18T16:38:37.201Z,7.30
2023-04-18T16:41:04.051Z,7.50
2023-04-18T16:43:31.043Z,6.90
2023-04-18T16:46:00.189Z,6.70
2023-04-18T16:48:28.860Z,11.13
2023-04-18T16:50:56.290Z,6.38
2023-04-18T16:53:24.335Z,6.97
2023-04-18T16:55:52.933Z,7.90
2023-04-18T16:58:21.779Z,6.07
2023-04-18T17:00:48.564Z,6.65
2023-04-18T17:03:15.484Z,7.40
2023-04-18T17:05:42.318Z,6.57
2023-04-18T17:08:10.167Z,5.90
2023-04-18T17:10:36.936Z,6.45
2023-04-18T17:13:04.846Z,6.00
2023-04-18T17:15:31.630Z,5.32
2023-04-18T17:18:00.521Z,5.25
2023-04-18T17:20:28.814Z,6.47
2023-04-18T17:22:55.701Z,7.10
2023-04-18T17:25:22.515Z,6.07
2023-04-18T17:27:49.312Z,5.70
2023-04-18T17:30:16.248Z,5.63
2023-04-18T17:32:46.327Z,7.32
2023-04-18T17:35:14.703Z,7.60
2023-04-18T17:37:42.722Z,6.38
2023-04-18T17:40:11.622Z,6.40
2023-04-18T17:42:38.761Z,5.55
2023-04-18T17:45:07.852Z,6.00
2023-04-18T17:47:36.862Z,7.97
2023-04-18T17:50:04.811Z,6.63
2023-04-18T17:52:31.852Z,5.22
2023-04-18T17:55:02.039Z,6.13
2023-04-18T17:57:30.713Z,4.90
2023-04-18T17:59:57.472Z,6.00
2023-04-18T18:02:24.563Z,6.05
2023-04-18T18:04:51.571Z,8.27
2023-04-18T18:07:18.432Z,5.70
2023-04-18T18:09:45.546Z,6.72
2023-04-18T18:12:12.474Z,6.13
2023-04-18T18:14:40.508Z,8.55
2023-04-18T18:17:07.453Z,5.18
2023-04-18T18:19:37.261Z,5.75
2023-04-18T18:22:04.058Z,4.80
2023-04-18T18:24:31.031Z,6.53
2023-04-18T18:26:58.812Z,6.55
2023-04-18T18:29:26.020Z,5.63
2023-04-18T18:31:53.767Z,7.03
2023-04-18T18:34:21.658Z,5.57
2023-04-18T18:36:50.458Z,5.75
2023-04-18T18:39:17.544Z,5.90
2023-04-18T18:41:44.358Z,6.35
2023-04-18T18:44:12.392Z,6.07
2023-04-18T18:46:39.111Z,9.27
2023-04-18T18:49:06.012Z,7.40
2023-04-18T18:51:32.834Z,9.13
2023-04-18T18:54:00.530Z,10.18
2023-04-18T18:56:27.419Z,9.18
2023-04-18T18:58:57.245Z,9.95
2023-04-18T19:01:24.503Z,8.57
2023-04-18T19:03:51.594Z,10.48
2023-04-18T19:06:21.241Z,6.55
2023-04-18T19:08:47.932Z,5.75
2023-04-18T19:11:16.121Z,5.25
2023-04-18T19:13:42.835Z,5.82
2023-04-18T19:16:09.639Z,6.63
2023-04-18T19:18:45.491Z,6.63
2023-04-18T19:21:13.255Z,6.03
2023-04-18T19:23:41.776Z,5.32
2023-04-18T19:26:09.904Z,7.72
2023-04-18T19:28:37.854Z,5.97
2023-04-18T19:31:05.028Z,6.50
2023-04-18T19:33:31.904Z,5.78
2023-04-18T19:35:58.782Z,6.30
2023-04-18T19:38:25.829Z,6.90
2023-04-18T19:40:52.842Z,6.95
2023-04-18T19:43:19.621Z,6.20
2023-04-18T19:45:46.543Z,6.57
2023-04-18T19:48:13.508Z,6.40
2023-04-18T19:50:42.118Z,5.80
2023-04-18T19:53:09.119Z,8.35
2023-04-18T19:55:35.885Z,7.65
2023-04-18T19:58:02.683Z,6.88
2023-04-18T20:00:29.770Z,6.95
2023-04-18T20:02:58.622Z,7.13
2023-04-18T20:05:25.847Z,5.00
2023-04-18T20:07:52.599Z,5.55
2023-04-18T20:10:23.466Z,5.82
2023-04-18T20:12:50.335Z,5.40
2023-04-18T20:15:17.233Z,4.60
2023-04-18T20:17:44.019Z,5.72
2023-04-18T20:20:11.580Z,6.53
2023-04-18T20:22:40.542Z,5.93
2023-04-18T20:25:08.884Z,5.38
2023-04-18T20:27:35.726Z,5.15
2023-04-18T20:30:02.617Z,6.15
2023-04-18T20:32:29.499Z,5.18
2023-04-18T20:34:59.316Z,5.75
2023-04-18T20:37:27.998Z,6.57
2023-04-18T20:39:56.005Z,9.05
2023-04-18T20:42:25.799Z,4.30
2023-04-18T20:44:54.544Z,4.82
2023-04-18T20:47:21.297Z,6.03
2023-04-18T20:49:48.093Z,5.32
2023-04-18T20:52:14.837Z,4.60
2023-04-18T20:54:41.768Z,4.78
2023-04-18T20:57:08.712Z,4.82
2023-04-18T20:59:35.606Z,8.38
2023-04-18T21:02:02.469Z,5.53
2023-04-18T21:04:29.706Z,5.32
2023-04-18T21:06:56.701Z,5.95
2023-04-18T21:09:23.573Z,5.43
2023-04-18T21:11:50.285Z,7.13
2023-04-18T21:14:17.256Z,4.47
2023-04-18T21:16:44.344Z,4.80
2023-04-18T21:19:11.779Z,4.35
2023-04-18T21:21:38.537Z,5.53
2023-04-18T21:24:05.661Z,4.85
2023-04-18T21:26:32.450Z,7.68
2023-04-18T21:29:02.564Z,4.72
2023-04-18T21:31:32.014Z,7.57
2023-04-18T21:34:03.422Z,4.75
2023-04-18T21:36:32.158Z,6.57
2023-04-18T21:39:01.236Z,5.15
2023-04-18T21:41:28.354Z,5.05
2023-04-18T21:43:55.116Z,5.20
2023-04-18T21:46:21.923Z,5.32
2023-04-18T21:48:50.232Z,7.13
2023-04-18T21:51:19.729Z,7.38
2023-04-18T21:53:46.511Z,5.82
2023-04-18T21:56:14.418Z,5.70
2023-04-18T21:58:42.458Z,5.25
2023-04-18T22:01:09.321Z,5.47
2023-04-18T22:03:36.950Z,5.00
2023-04-18T22:06:04.459Z,6.70
2023-04-18T22:08:31.249Z,8.43
2023-04-18T22:11:00.511Z,5.82
2023-04-18T22:13:33.308Z,6.80
2023-04-18T22:16:03.562Z,7.63
2023-04-18T22:18:33.816Z,5.60
2023-04-18T22:21:04.734Z,6.30
2023-04-18T22:23:31.575Z,4.35
2023-04-18T22:25:58.507Z,6.22
2023-04-18T22:28:29.980Z,6.28
2023-04-18T22:30:57.080Z,6.50
2023-04-18T22:33:24.385Z,5.35
2023-04-18T22:35:51.275Z,6.25
2023-04-18T22:38:18.052Z,5.85
2023-04-18T22:40:45.000Z,5.07
2023-04-18T22:43:13.248Z,5.05
2023-04-18T22:45:40.053Z,5.32
2023-04-18T22:48:11.235Z,5.38
2023-04-18T22:50:42.441Z,6.18
2023-04-18T22:53:10.783Z,4.53
2023-04-18T22:55:42.845Z,4.88
2023-04-18T22:58:10.816Z,5.68
2023-04-18T23:00:38.441Z,5.55
2023-04-18T23:03:05.557Z,7.15
2023-04-18T23:05:33.218Z,5.30
2023-04-18T23:08:00.588Z,7.28
2023-04-18T23:10:28.030Z,5.30
2023-04-18T23:12:54.806Z,5.68
2023-04-18T23:15:23.021Z,6.07
2023-04-18T23:17:53.725Z,6.05
2023-04-18T23:20:21.357Z,4.57
2023-04-18T23:22:51.337Z,5.32
2023-04-18T23:25:19.412Z,7.97
2023-04-18T23:27:46.818Z,4.80
2023-04-18T23:30:13.741Z,6.03
2023-04-18T23:32:40.539Z,5.85
2023-04-18T23:35:07.840Z,6.93
2023-04-18T23:37:34.568Z,5.95
2023-04-18T23:40:06.483Z,6.18
2023-04-18T23:42:35.898Z,5.32
2023-04-18T23:45:04.119Z,7.05
2023-04-18T23:47:30.936Z,5.85
2023-04-18T23:49:57.900Z,7.00
2023-04-18T23:52:24.669Z,5.90
2023-04-18T23:54:51.734Z,8.02
2023-04-18T23:57:18.456Z,6.43
2023-04-18T23:59:45.141Z,6.22
